Time;durP1;ratioP1;P1;durP2;ratioP2;P2;SDS_P1;SDS_P2;PMS_P1;PMS_P2;Temp;Humidity;BMP_temperature;BMP_pressure;BME280_temperature;BME280_humidity;BME280_pressure;Samples;Min_cycle;Max_cycle;Signal;HPM_P1;HPM_P2
2021/08/16 00:01:04;;;;;;;7.57;3.13;;;;;;;18.42;90.70;100288.34;5100134;28;20448;-74
2021/08/16 00:03:31;;;;;;;6.70;2.83;;;;;;;18.49;90.75;100282.97;5092991;28;20937;-74
2021/08/16 00:05:58;;;;;;;5.77;3.10;;;;;;;18.52;91.10;100289.72;5093339;28;20487;-72
2021/08/16 00:08:25;;;;;;;11.17;4.00;;;;;;;18.55;90.51;100275.25;5093225;28;20484;-70
2021/08/16 00:10:51;;;;;;;3.70;2.30;;;;;;;18.55;90.65;100270.59;5093266;28;20443;-70
2021/08/16 00:13:20;;;;;;;6.43;2.80;;;;;;;18.55;90.14;100267.03;5093279;28;20441;-71
2021/08/16 00:15:46;;;;;;;5.13;2.73;;;;;;;18.51;89.96;100266.97;5096250;28;20480;-71
2021/08/16 00:18:13;;;;;;;4.80;2.63;;;;;;;18.57;89.95;100275.69;5097476;28;20440;-72
2021/08/16 00:20:39;;;;;;;10.27;3.43;;;;;;;18.59;89.58;100270.63;5097469;28;20440;-71
2021/08/16 00:23:07;;;;;;;5.00;2.50;;;;;;;18.57;89.89;100264.72;5097471;28;20467;-71
2021/08/16 00:25:33;;;;;;;3.90;2.50;;;;;;;18.59;89.25;100252.25;5096966;28;20460;-71
2021/08/16 00:28:00;;;;;;;4.13;2.10;;;;;;;18.62;88.56;100259.72;5096933;28;20440;-71
2021/08/16 00:30:26;;;;;;;3.00;2.23;;;;;;;18.59;88.47;100254.16;5097244;28;20437;-71
2021/08/16 00:32:53;;;;;;;6.37;2.70;;;;;;;18.58;88.22;100247.88;5097239;28;20914;-71
2021/08/16 00:35:19;;;;;;;2.73;2.13;;;;;;;18.59;88.05;100244.00;5096776;28;20848;-71
2021/08/16 00:37:46;;;;;;;6.20;2.30;;;;;;;18.60;88.30;100244.81;5097138;28;20436;-71
2021/08/16 00:40:16;;;;;;;6.20;2.97;;;;;;;18.60;87.38;100242.06;5097036;28;20448;-71
2021/08/16 00:42:43;;;;;;;4.37;2.27;;;;;;;18.58;87.85;100241.63;5097062;28;20463;-71
2021/08/16 00:45:10;;;;;;;3.17;2.23;;;;;;;18.51;87.75;100238.75;5096687;28;20459;-71
2021/08/16 00:47:38;;;;;;;5.80;2.83;;;;;;;18.50;86.24;100240.69;5096773;28;20447;-71
2021/08/16 00:50:06;;;;;;;5.93;2.60;;;;;;;18.44;86.27;100236.66;5096794;28;20483;-71
2021/08/16 00:52:32;;;;;;;4.87;2.50;;;;;;;18.40;84.57;100231.09;5096882;28;20455;-71
2021/08/16 00:55:00;;;;;;;5.40;3.07;;;;;;;18.33;83.58;100230.19;5096698;28;20460;-71
2021/08/16 00:57:29;;;;;;;4.30;2.70;;;;;;;18.27;83.71;100226.91;5096755;28;20440;-71
2021/08/16 00:59:55;;;;;;;4.23;2.47;;;;;;;18.18;85.68;100222.81;5096365;28;20805;-71
2021/08/16 01:02:22;;;;;;;5.40;2.27;;;;;;;18.19;87.14;100225.19;5096661;28;20440;-71
2021/08/16 01:04:48;;;;;;;6.30;2.43;;;;;;;18.17;87.72;100218.50;5096546;28;20456;-71
2021/08/16 01:07:15;;;;;;;8.23;2.80;;;;;;;18.11;87.95;100220.75;5096210;28;20835;-71
2021/08/16 01:09:41;;;;;;;8.00;3.30;;;;;;;18.02;88.26;100206.47;5096112;28;20992;-71
2021/08/16 01:12:08;;;;;;;4.70;2.60;;;;;;;17.95;87.51;100214.53;5096375;28;20448;-71
2021/08/16 01:14:36;;;;;;;6.83;3.10;;;;;;;17.81;86.78;100204.06;5096028;28;21008;-71
2021/08/16 01:17:03;;;;;;;6.87;2.83;;;;;;;17.70;88.00;100200.25;5096322;28;20471;-71
2021/08/16 01:19:29;;;;;;;5.50;3.17;;;;;;;17.68;88.37;100203.34;5096030;28;20812;-71
2021/08/16 01:21:56;;;;;;;4.23;2.50;;;;;;;17.68;89.73;100203.34;5095952;28;20815;-71
2021/08/16 01:24:22;;;;;;;3.73;2.50;;;;;;;17.59;90.56;100194.56;5096187;28;20464;-71
2021/08/16 01:26:50;;;;;;;5.30;2.20;;;;;;;17.59;91.13;100183.59;5096115;28;20447;-71
2021/08/16 01:29:18;;;;;;;3.40;1.90;;;;;;;17.57;91.19;100188.63;5096012;28;20483;-71
2021/08/16 01:31:45;;;;;;;6.73;2.97;;;;;;;17.53;91.56;100176.78;5095709;28;20486;-70
2021/08/16 01:34:12;;;;;;;5.40;2.27;;;;;;;17.46;91.37;100179.41;5095632;28;20981;-70
2021/08/16 01:36:40;;;;;;;7.80;2.30;;;;;;;17.32;92.51;100182.59;5095687;28;20937;-70
2021/08/16 01:39:06;;;;;;;8.60;3.30;;;;;;;17.35;92.08;100171.75;5095886;28;20444;-73
2021/08/16 01:41:33;;;;;;;6.80;2.73;;;;;;;17.25;92.83;100161.31;5096022;28;20440;-71
2021/08/16 01:44:01;;;;;;;5.27;2.67;;;;;;;17.29;92.79;100158.66;5095479;28;20973;-72
2021/08/16 01:46:27;;;;;;;8.20;3.03;;;;;;;17.35;92.51;100155.31;5095772;28;20436;-71
2021/08/16 01:48:54;;;;;;;3.30;2.40;;;;;;;17.37;92.34;100147.53;5095374;28;21111;-71
2021/08/16 01:51:21;;;;;;;2.50;2.10;;;;;;;17.31;92.64;100138.00;5095719;28;20455;-71
2021/08/16 01:53:47;;;;;;;4.50;2.13;;;;;;;17.29;92.69;100136.78;5095619;28;20463;-71
2021/08/16 01:56:14;;;;;;;5.10;3.00;;;;;;;17.24;93.04;100131.56;5095614;28;20448;-71
2021/08/16 01:58:40;;;;;;;5.90;3.00;;;;;;;17.17;93.35;100132.19;5100597;28;20427;-71
2021/08/16 02:01:08;;;;;;;6.93;2.30;;;;;;;17.18;92.84;100130.25;5094999;28;20456;-71
2021/08/16 02:03:34;;;;;;;3.73;2.57;;;;;;;17.12;93.13;100121.53;5095362;28;20467;-71
2021/08/16 02:06:01;;;;;;;3.87;2.70;;;;;;;17.11;92.94;100112.53;5095434;28;20440;-71
2021/08/16 02:08:27;;;;;;;4.20;2.20;;;;;;;17.07;93.32;100105.38;5095411;28;20447;-70
2021/08/16 02:10:53;;;;;;;5.37;2.80;;;;;;;17.07;93.43;100099.91;5095275;28;20541;-71
2021/08/16 02:13:20;;;;;;;3.73;2.40;;;;;;;17.03;94.12;100099.03;5094994;28;20935;-71
2021/08/16 02:15:46;;;;;;;4.97;3.40;;;;;;;17.00;94.47;100099.75;5094834;28;20468;-71
2021/08/16 02:18:14;;;;;;;7.20;2.30;;;;;;;17.03;94.23;100110.78;5095300;28;20432;-70
2021/08/16 02:20:41;;;;;;;4.60;2.20;;;;;;;17.04;93.48;100114.31;5095190;28;20441;-71
2021/08/16 02:23:07;;;;;;;4.10;2.33;;;;;;;16.95;91.58;100106.28;5095115;28;20440;-71
2021/08/16 02:25:34;;;;;;;2.40;2.13;;;;;;;16.98;90.30;100104.78;5094962;28;20461;-71
2021/08/16 02:28:00;;;;;;;4.93;2.40;;;;;;;16.93;90.15;100102.34;5094707;28;20810;-71
2021/08/16 02:30:27;;;;;;;4.20;2.50;;;;;;;16.90;90.16;100095.63;5094917;28;20506;-71
2021/08/16 02:32:53;;;;;;;3.73;2.30;;;;;;;16.88;91.46;100093.25;5094861;28;20455;-71
2021/08/16 02:35:21;;;;;;;2.40;1.90;;;;;;;16.86;92.97;100090.06;5094488;28;20969;-71
2021/08/16 02:37:48;;;;;;;4.23;2.87;;;;;;;16.83;92.92;100093.53;5093975;28;20937;-71
2021/08/16 02:40:14;;;;;;;3.53;2.77;;;;;;;16.84;93.78;100095.09;5094760;28;20467;-71
2021/08/16 02:42:49;;;;;;;4.10;2.60;;;;;;;16.85;93.79;100088.47;5094717;28;20449;-71
2021/08/16 02:45:16;;;;;;;4.53;2.80;;;;;;;16.87;94.36;100077.19;5094624;28;20467;-71
2021/08/16 02:47:44;;;;;;;3.37;2.53;;;;;;;16.87;94.42;100080.72;5094632;28;20447;-71
2021/08/16 02:50:10;;;;;;;3.07;1.90;;;;;;;16.84;94.56;100075.16;5094486;28;20570;-71
2021/08/16 02:52:38;;;;;;;2.40;1.90;;;;;;;16.81;94.37;100065.72;5094533;28;20447;-71
2021/08/16 02:55:06;;;;;;;2.17;1.83;;;;;;;16.85;94.76;100061.13;5094066;28;20981;-72
2021/08/16 02:57:33;;;;;;;2.80;2.07;;;;;;;16.84;94.73;100064.22;5094469;28;20818;-72
2021/08/16 02:59:59;;;;;;;3.67;2.53;;;;;;;16.85;94.71;100055.66;5094373;28;20436;-72
2021/08/16 03:02:26;;;;;;;3.60;2.47;;;;;;;16.88;94.76;100056.91;5094361;28;20522;-72
2021/08/16 03:04:53;;;;;;;5.27;2.10;;;;;;;16.85;94.86;100061.13;5094224;28;20457;-72
2021/08/16 03:07:20;;;;;;;2.50;1.80;;;;;;;16.81;94.48;100051.25;5094247;28;20475;-71
2021/08/16 03:09:48;;;;;;;5.63;2.30;;;;;;;16.86;94.16;100062.69;5094113;28;20502;-72
2021/08/16 03:12:14;;;;;;;3.50;2.30;;;;;;;16.88;94.87;100054.16;5094191;28;20440;-72
2021/08/16 03:14:40;;;;;;;6.70;1.90;;;;;;;16.84;95.19;100051.34;5093784;28;20472;-72
2021/08/16 03:17:07;;;;;;;4.67;2.50;;;;;;;16.86;94.43;100050.97;5094077;28;20452;-72
2021/08/16 03:19:34;;;;;;;3.77;2.50;;;;;;;16.88;94.32;100054.94;5094027;28;20432;-72
2021/08/16 03:22:00;;;;;;;3.30;2.17;;;;;;;16.86;94.42;100057.22;5093980;28;20436;-71
2021/08/16 03:24:27;;;;;;;4.30;2.80;;;;;;;16.85;94.60;100052.13;5093893;28;20467;-71
2021/08/16 03:26:55;;;;;;;5.20;2.43;;;;;;;16.87;94.70;100049.84;5093897;28;20440;-72
2021/08/16 03:29:21;;;;;;;4.40;2.23;;;;;;;16.92;94.83;100043.28;5093524;28;21001;-71
2021/08/16 03:31:48;;;;;;;4.70;2.43;;;;;;;16.93;94.59;100042.94;5093504;28;20432;-71
2021/08/16 03:34:14;;;;;;;4.33;2.73;;;;;;;16.94;92.06;100041.78;5093432;28;20834;-71
2021/08/16 03:36:41;;;;;;;2.67;2.00;;;;;;;16.98;90.32;100028.19;5093774;28;20447;-71
2021/08/16 03:39:07;;;;;;;3.37;2.27;;;;;;;17.03;88.59;100022.41;5093718;28;20440;-72
2021/08/16 03:41:34;;;;;;;4.47;2.47;;;;;;;17.06;88.54;100019.75;5093692;28;20443;-72
2021/08/16 03:44:02;;;;;;;3.20;1.70;;;;;;;17.18;88.71;100031.72;5093565;28;20467;-71
2021/08/16 03:46:28;;;;;;;3.63;2.43;;;;;;;17.28;90.15;100023.75;5093288;28;20531;-71
2021/08/16 03:48:55;;;;;;;3.83;2.53;;;;;;;17.40;90.23;100029.09;5092393;28;20941;-71
2021/08/16 03:51:21;;;;;;;3.60;2.40;;;;;;;17.62;89.83;100027.56;5093472;28;20503;-71
2021/08/16 03:53:48;;;;;;;3.03;1.90;;;;;;;17.78;89.36;100030.22;5093094;28;20467;-72
2021/08/16 03:56:14;;;;;;;4.20;2.70;;;;;;;17.90;88.75;100034.75;5093509;28;20441;-71
2021/08/16 03:58:42;;;;;;;2.43;1.83;;;;;;;17.96;87.37;100066.16;5093104;28;20464;-72
2021/08/16 04:01:10;;;;;;;2.17;1.73;;;;;;;18.08;83.93;100070.69;5093305;28;20487;-72
2021/08/16 04:03:38;;;;;;;4.27;1.90;;;;;;;18.22;83.11;100065.47;5093382;28;20436;-72
2021/08/16 04:06:05;;;;;;;6.17;2.10;;;;;;;18.31;83.58;100029.56;5093443;28;20490;-72
2021/08/16 04:08:33;;;;;;;4.77;2.00;;;;;;;18.36;82.54;100032.78;5093380;28;20444;-72
2021/08/16 04:10:59;;;;;;;5.10;2.20;;;;;;;18.43;83.12;100039.56;5092955;28;20902;-71
2021/08/16 04:13:26;;;;;;;3.50;2.40;;;;;;;18.36;83.42;100042.97;5093331;28;20445;-71
2021/08/16 04:15:53;;;;;;;4.60;2.10;;;;;;;18.36;84.44;100051.97;5093376;28;20461;-72
2021/08/16 04:18:21;;;;;;;10.40;2.27;;;;;;;18.35;82.68;100052.34;5093241;28;20437;-72
2021/08/16 04:20:47;;;;;;;3.30;2.07;;;;;;;18.40;81.88;100065.75;5093233;28;20435;-72
2021/08/16 04:23:14;;;;;;;2.43;1.73;;;;;;;18.45;82.01;100083.84;5092969;28;20974;-71
2021/08/16 04:25:40;;;;;;;4.67;1.70;;;;;;;18.49;82.30;100065.50;5093170;28;20460;-71
2021/08/16 04:28:07;;;;;;;2.90;1.97;;;;;;;18.47;80.97;100070.59;5093113;28;20436;-71
2021/08/16 04:30:33;;;;;;;4.30;2.27;;;;;;;18.45;80.34;100067.41;5093022;28;20475;-72
2021/08/16 04:32:59;;;;;;;2.10;1.67;;;;;;;18.43;80.81;100072.47;5093191;28;20441;-72
2021/08/16 04:35:27;;;;;;;3.80;2.20;;;;;;;18.50;81.50;100084.34;5093047;28;20644;-72
2021/08/16 04:37:54;;;;;;;3.03;1.63;;;;;;;18.54;82.07;100084.41;5093094;28;20451;-72
2021/08/16 04:40:20;;;;;;;4.00;1.77;;;;;;;18.57;83.30;100089.16;5094378;28;20468;-72
2021/08/16 04:42:47;;;;;;;3.90;2.17;;;;;;;18.58;84.27;100088.00;5093070;28;20455;-72
2021/08/16 04:45:13;;;;;;;4.17;2.57;;;;;;;18.55;84.74;100084.06;5092957;28;20459;-72
2021/08/16 04:47:44;;;;;;;3.67;2.03;;;;;;;18.55;85.82;100089.53;5093287;28;20452;-72
2021/08/16 04:50:11;;;;;;;2.60;2.17;;;;;;;18.51;86.26;100079.66;5092959;28;20468;-71
2021/08/16 04:52:39;;;;;;;3.70;1.97;;;;;;;18.50;87.15;100087.06;5092966;28;20444;-71
2021/08/16 04:55:07;;;;;;;3.73;2.37;;;;;;;18.47;87.46;100098.00;5092841;28;20467;-71
2021/08/16 04:57:35;;;;;;;2.83;1.90;;;;;;;18.35;86.91;100097.03;5092976;28;20452;-71
2021/08/16 05:00:02;;;;;;;3.90;2.30;;;;;;;18.40;87.48;100098.66;5093306;28;20433;-71
2021/08/16 05:02:29;;;;;;;3.43;2.27;;;;;;;18.34;88.03;100095.44;5096672;28;20508;-71
2021/08/16 05:04:57;;;;;;;7.43;2.33;;;;;;;18.38;87.21;100090.03;5096306;28;20460;-72
2021/08/16 05:07:24;;;;;;;3.23;2.20;;;;;;;18.44;87.67;100087.75;5096566;28;20447;-72
2021/08/16 05:09:52;;;;;;;6.70;2.30;;;;;;;18.48;87.66;100086.66;5096153;28;20480;-72
2021/08/16 05:12:20;;;;;;;4.67;2.00;;;;;;;18.48;87.29;100085.88;5096484;28;20456;-71
2021/08/16 05:14:46;;;;;;;4.10;1.83;;;;;;;18.54;88.69;100090.66;5095958;28;20468;-71
2021/08/16 05:17:13;;;;;;;5.03;2.10;;;;;;;18.58;89.35;100079.75;5096436;28;20440;-71
2021/08/16 05:19:40;;;;;;;12.73;2.57;;;;;;;18.57;89.53;100080.94;5096370;28;20432;-71
2021/08/16 05:22:07;;;;;;;2.37;1.53;;;;;;;18.58;89.32;100074.28;5096309;28;20451;-69
2021/08/16 05:24:35;;;;;;;3.23;2.20;;;;;;;18.60;89.45;100085.69;5096237;28;20805;-69
2021/08/16 05:27:03;;;;;;;3.27;1.70;;;;;;;18.58;89.70;100083.28;5096242;28;20436;-71
2021/08/16 05:29:31;;;;;;;4.43;1.50;;;;;;;18.60;88.79;100083.72;5096170;28;20436;-71
2021/08/16 05:31:58;;;;;;;5.10;2.20;;;;;;;18.69;88.47;100082.69;5096019;28;20507;-72
2021/08/16 05:34:24;;;;;;;2.50;1.43;;;;;;;18.78;85.77;100086.00;5095998;28;20501;-72
2021/08/16 05:36:50;;;;;;;3.90;2.60;;;;;;;18.89;83.44;100095.97;5096023;28;20448;-71
2021/08/16 05:39:17;;;;;;;3.50;1.90;;;;;;;18.95;83.18;100101.13;5095969;28;20457;-72
2021/08/16 05:41:43;;;;;;;4.73;2.17;;;;;;;19.09;83.47;100106.84;5095987;28;20433;-72
2021/08/16 05:44:11;;;;;;;3.20;2.13;;;;;;;19.21;81.20;100106.59;5095831;28;20460;-71
2021/08/16 05:46:37;;;;;;;3.57;1.53;;;;;;;19.30;80.44;100109.91;5095865;28;20444;-72
2021/08/16 05:49:05;;;;;;;5.60;2.37;;;;;;;19.44;81.31;100112.03;5095821;28;20558;-72
2021/08/16 05:51:31;;;;;;;4.03;1.83;;;;;;;19.55;81.25;100101.97;5095720;28;20484;-72
2021/08/16 05:53:58;;;;;;;1.83;1.23;;;;;;;19.61;80.79;100111.50;5095669;28;20469;-72
2021/08/16 05:56:24;;;;;;;3.83;1.77;;;;;;;19.74;79.85;100114.00;5095657;28;20440;-71
2021/08/16 05:58:50;;;;;;;5.93;1.97;;;;;;;19.84;79.12;100105.09;5095609;28;20447;-72
2021/08/16 06:01:18;;;;;;;4.07;2.00;;;;;;;19.96;77.15;100112.28;5095505;28;20577;-72
2021/08/16 06:03:45;;;;;;;2.73;1.83;;;;;;;20.00;77.37;100122.16;5095073;28;20448;-72
2021/08/16 06:06:11;;;;;;;5.30;2.10;;;;;;;19.94;77.35;100120.91;5095526;28;20436;-72
2021/08/16 06:08:37;;;;;;;5.60;1.60;;;;;;;19.99;76.67;100117.03;5095421;28;20463;-72
2021/08/16 06:11:04;;;;;;;3.37;1.90;;;;;;;20.02;76.53;100111.59;5095373;28;20476;-72
2021/08/16 06:13:30;;;;;;;3.70;2.03;;;;;;;20.00;76.57;100118.63;5094235;28;20475;-71
2021/08/16 06:15:57;;;;;;;4.13;1.77;;;;;;;20.00;76.31;100110.38;5095607;28;20444;-72
2021/08/16 06:18:24;;;;;;;4.77;2.50;;;;;;;20.01;77.60;100120.19;5095234;28;20444;-72
2021/08/16 06:20:51;;;;;;;2.30;1.80;;;;;;;20.07;76.75;100115.94;5095203;28;20437;-72
2021/08/16 06:23:17;;;;;;;2.63;1.50;;;;;;;20.17;76.91;100127.06;5095100;28;20436;-72
2021/08/16 06:25:44;;;;;;;4.43;2.13;;;;;;;20.22;75.69;100127.88;5094715;28;20842;-72
2021/08/16 06:28:10;;;;;;;3.10;1.80;;;;;;;20.30;78.28;100124.81;5095072;28;20815;-72
2021/08/16 06:30:37;;;;;;;5.30;1.80;;;;;;;20.44;76.46;100126.13;5094916;28;20480;-72
2021/08/16 06:33:03;;;;;;;3.70;2.13;;;;;;;20.58;76.15;100120.78;5094940;28;20476;-72
2021/08/16 06:35:31;;;;;;;2.23;1.77;;;;;;;20.65;75.73;100120.84;5094495;28;20961;-72
2021/08/16 06:37:59;;;;;;;3.50;1.70;;;;;;;20.71;77.50;100127.56;5094831;28;20447;-72
2021/08/16 06:40:26;;;;;;;2.53;1.57;;;;;;;20.65;75.30;100116.13;5094492;28;20930;-72
2021/08/16 06:42:52;;;;;;;3.33;1.90;;;;;;;20.74;75.92;100110.31;5094413;28;20848;-72
2021/08/16 06:45:18;;;;;;;3.57;1.77;;;;;;;20.68;76.13;100117.34;5094612;28;20464;-72
2021/08/16 06:47:45;;;;;;;3.80;1.90;;;;;;;20.56;76.43;100118.41;5094686;28;20514;-72
2021/08/16 06:50:11;;;;;;;2.63;1.63;;;;;;;20.56;76.35;100118.41;5094535;28;20447;-72
2021/08/16 06:52:39;;;;;;;3.70;2.27;;;;;;;20.49;77.14;100112.06;5094263;28;20902;-72
2021/08/16 06:55:06;;;;;;;5.97;1.73;;;;;;;20.53;77.04;100118.38;5094474;28;20467;-71
2021/08/16 06:57:34;;;;;;;2.33;1.77;;;;;;;20.59;78.46;100130.63;5094147;28;20945;-72
2021/08/16 07:00:00;;;;;;;3.40;1.77;;;;;;;20.55;78.51;100132.56;5094476;28;20437;-74
2021/08/16 07:02:27;;;;;;;6.10;2.10;;;;;;;20.58;78.14;100129.81;5094430;28;20436;-72
2021/08/16 07:04:53;;;;;;;2.80;1.90;;;;;;;20.55;78.75;100125.09;5094320;28;20461;-72
2021/08/16 07:07:19;;;;;;;3.27;1.33;;;;;;;20.54;80.43;100129.03;5093974;28;20821;-72
2021/08/16 07:09:47;;;;;;;2.50;1.97;;;;;;;20.58;78.47;100129.03;5094295;28;20456;-71
2021/08/16 07:12:14;;;;;;;2.90;1.70;;;;;;;20.61;78.88;100122.78;5094158;28;20480;-72
2021/08/16 07:14:40;;;;;;;3.03;1.90;;;;;;;20.60;78.96;100126.72;5093783;28;20494;-71
2021/08/16 07:17:06;;;;;;;3.03;1.83;;;;;;;20.61;78.40;100117.28;5093801;28;20440;-72
2021/08/16 07:19:33;;;;;;;2.73;1.23;;;;;;;20.68;79.37;100120.09;5094081;28;20444;-71
2021/08/16 07:21:59;;;;;;;21.40;2.77;;;;;;;20.74;78.53;100126.81;5094106;28;20432;-71
2021/08/16 07:24:26;;;;;;;4.07;1.80;;;;;;;20.89;78.66;100112.00;5093822;28;20464;-72
2021/08/16 07:26:54;;;;;;;2.67;1.93;;;;;;;21.08;78.32;100118.41;5093680;28;20432;-72
2021/08/16 07:29:20;;;;;;;3.53;1.60;;;;;;;21.24;77.21;100116.13;5093911;28;20439;-72
2021/08/16 07:31:46;;;;;;;5.00;1.77;;;;;;;;;;5093846;28;20480;-73
2021/08/16 07:34:13;;;;;;;3.23;1.40;;;;;;;21.30;76.34;100113.84;5093792;28;20464;-72
2021/08/16 07:36:39;;;;;;;5.03;1.70;;;;;;;21.31;76.31;100110.72;5093834;28;20451;-72
2021/08/16 07:39:06;;;;;;;4.47;1.90;;;;;;;21.35;76.56;100110.75;5093777;28;20449;-72
2021/08/16 07:41:32;;;;;;;2.90;1.97;;;;;;;21.45;76.91;100112.75;5093876;28;20432;-72
2021/08/16 07:44:00;;;;;;;3.50;2.00;;;;;;;21.41;75.83;100118.25;5093498;28;20518;-72
2021/08/16 07:46:26;;;;;;;3.50;1.70;;;;;;;21.47;76.70;100126.13;5093658;28;20457;-72
2021/08/16 07:48:53;;;;;;;8.67;2.10;;;;;;;21.53;76.10;100124.59;5093662;28;20440;-70
2021/08/16 07:51:19;;;;;;;6.27;2.20;;;;;;;21.50;76.31;100131.66;5093277;28;21016;-70
2021/08/16 07:53:46;;;;;;;3.30;1.77;;;;;;;21.44;76.56;100130.47;5093622;28;20437;-71
2021/08/16 07:56:12;;;;;;;3.23;1.83;;;;;;;21.49;76.52;100124.59;5093228;28;20503;-72
2021/08/16 07:58:40;;;;;;;5.00;2.43;;;;;;;21.51;75.98;100132.44;5093231;28;20951;-73
2021/08/16 08:01:08;;;;;;;3.17;1.93;;;;;;;21.57;74.11;100128.97;5093228;28;20447;-73
2021/08/16 08:03:45;;;;;;;3.43;2.33;;;;;;;21.66;72.68;100117.56;5093714;28;20467;-73
2021/08/16 08:06:12;;;;;;;5.00;2.67;;;;;;;21.68;71.49;100140.03;5093321;28;20509;-72
2021/08/16 08:08:38;;;;;;;5.70;3.20;;;;;;;21.57;71.79;100139.97;5093231;28;20443;-72
2021/08/16 08:11:05;;;;;;;3.67;2.53;;;;;;;21.57;72.36;100139.19;5092986;28;20491;-72
2021/08/16 08:13:32;;;;;;;10.00;3.40;;;;;;;21.69;72.22;100147.09;5093229;28;20447;-72
2021/08/16 08:15:58;;;;;;;7.17;3.37;;;;;;;21.76;70.61;100158.19;5093393;28;20424;-72
2021/08/16 08:18:26;;;;;;;3.33;2.50;;;;;;;21.92;70.45;100155.09;5093306;28;20444;-72
2021/08/16 08:20:53;;;;;;;6.50;2.63;;;;;;;21.99;68.70;100157.06;5093286;28;20444;-72
2021/08/16 08:23:19;;;;;;;5.60;3.03;;;;;;;22.00;68.89;100153.13;5093265;28;20436;-72
2021/08/16 08:25:46;;;;;;;4.00;2.70;;;;;;;22.06;70.58;100154.34;5092893;28;20460;-72
2021/08/16 08:28:15;;;;;;;6.50;3.20;;;;;;;22.11;65.88;100157.50;5093166;28;20440;-71
2021/08/16 08:30:42;;;;;;;9.80;3.47;;;;;;;22.18;65.58;100162.31;5092902;28;20930;-72
2021/08/16 08:33:11;;;;;;;5.30;3.30;;;;;;;22.26;65.30;100152.84;5093195;28;20445;-72
2021/08/16 08:35:39;;;;;;;3.43;2.53;;;;;;;22.31;64.03;100149.72;5094119;28;20475;-72
2021/08/16 08:38:05;;;;;;;4.93;2.73;;;;;;;22.36;63.34;100165.91;5096933;28;20965;-72
2021/08/16 08:40:32;;;;;;;3.90;2.63;;;;;;;22.22;61.96;100157.56;5097183;28;20470;-71
2021/08/16 08:42:59;;;;;;;4.93;3.03;;;;;;;22.31;64.04;100162.72;5096865;28;20817;-72
2021/08/16 08:45:26;;;;;;;3.57;2.80;;;;;;;22.32;63.65;100154.06;5097059;28;20490;-72
2021/08/16 08:47:54;;;;;;;3.23;2.47;;;;;;;22.40;62.65;100155.66;5096736;28;20963;-74
2021/08/16 08:50:21;;;;;;;4.20;2.40;;;;;;;22.37;63.10;100153.66;5096944;28;20440;-74
2021/08/16 08:52:50;;;;;;;3.30;2.33;;;;;;;22.48;62.81;100158.41;5096909;28;20483;-73
2021/08/16 08:55:16;;;;;;;4.63;2.77;;;;;;;22.40;61.85;100161.16;5096873;28;20464;-73
2021/08/16 08:57:43;;;;;;;3.10;2.77;;;;;;;22.35;62.50;100161.53;5096799;28;20451;-73
2021/08/16 09:00:15;;;;;;;4.33;2.50;;;;;;;22.22;59.97;100160.31;5096764;28;20444;-72
2021/08/16 09:02:42;;;;;;;4.07;2.37;;;;;;;22.18;62.24;100173.34;5096771;28;20482;-73
2021/08/16 09:05:09;;;;;;;4.93;2.90;;;;;;;22.18;59.78;100165.06;5096545;28;20471;-73
2021/08/16 09:07:38;;;;;;;5.80;2.73;;;;;;;22.14;60.11;100172.53;5096626;28;20444;-73
2021/08/16 09:10:11;;;;;;;3.47;2.87;;;;;;;22.14;59.80;100167.81;5096575;28;20452;-72
2021/08/16 09:12:39;;;;;;;4.67;2.10;;;;;;;22.25;60.44;100167.81;5096359;28;20475;-73
2021/08/16 09:15:18;;;;;;;1.77;1.43;;;;;;;22.39;60.01;100170.59;5096133;28;20543;-72
2021/08/16 09:17:45;;;;;;;8.97;1.90;;;;;;;22.38;59.04;100182.06;5096523;28;20424;-73
2021/08/16 09:20:16;;;;;;;2.60;1.80;;;;;;;22.47;60.19;100176.16;5096446;28;20441;-73
2021/08/16 09:22:43;;;;;;;3.90;2.67;;;;;;;22.53;58.33;100175.38;5096071;28;20950;-73
2021/08/16 09:25:12;;;;;;;3.83;2.40;;;;;;;22.65;58.62;100183.28;5095893;28;21000;-73
2021/08/16 09:27:45;;;;;;;2.50;1.83;;;;;;;22.63;60.20;100179.34;5096234;28;20448;-72
2021/08/16 09:30:13;;;;;;;2.73;1.70;;;;;;;22.75;59.15;100178.94;5096373;28;20456;-72
2021/08/16 09:32:40;;;;;;;4.10;2.30;;;;;;;22.60;59.09;100191.16;5096110;28;20491;-72
2021/08/16 09:35:09;;;;;;;3.07;2.03;;;;;;;22.63;58.24;100187.63;5095749;28;20969;-72
2021/08/16 09:37:36;;;;;;;3.30;2.57;;;;;;;22.60;59.56;100180.13;5095769;28;20820;-72
2021/08/16 09:40:06;;;;;;;3.27;2.27;;;;;;;22.50;60.11;100191.94;5096006;28;20444;-72
2021/08/16 09:42:44;;;;;;;2.60;2.40;;;;;;;22.56;59.69;100195.88;5096084;28;20487;-72
2021/08/16 09:45:12;;;;;;;2.77;2.00;;;;;;;22.67;59.19;100185.66;5095872;28;20471;-72
2021/08/16 09:47:43;;;;;;;3.30;2.00;;;;;;;22.88;59.42;100193.94;5094526;28;20440;-73
2021/08/16 09:50:12;;;;;;;3.60;2.50;;;;;;;23.15;58.42;100197.13;5095607;28;21005;-72
2021/08/16 09:52:38;;;;;;;3.20;2.23;;;;;;;23.36;59.39;100190.78;5095469;28;21004;-73
2021/08/16 09:55:06;;;;;;;4.50;2.50;;;;;;;23.50;57.43;100194.69;5095660;28;20464;-72
2021/08/16 09:57:33;;;;;;;3.17;2.70;;;;;;;23.46;55.88;100182.84;5095492;28;20445;-72
2021/08/16 10:00:01;;;;;;;3.70;2.00;;;;;;;23.39;57.45;100184.47;5095612;28;20443;-72
2021/08/16 10:02:28;;;;;;;2.83;2.63;;;;;;;23.35;55.05;100183.69;5095689;28;20440;-72
2021/08/16 10:04:56;;;;;;;4.40;2.70;;;;;;;23.40;55.52;100180.50;5095507;28;20473;-72
2021/08/16 10:07:26;;;;;;;3.30;2.30;;;;;;;23.54;56.34;100181.66;5095409;28;20444;-72
2021/08/16 10:10:00;;;;;;;5.83;2.87;;;;;;;23.75;54.79;100173.31;5095748;28;20448;-72
2021/08/16 10:12:27;;;;;;;6.77;2.60;;;;;;;23.85;52.60;100172.47;5095458;28;20465;-73
2021/08/16 10:14:55;;;;;;;7.07;3.47;;;;;;;23.71;54.57;100183.63;5094926;28;20479;-72
2021/08/16 10:17:27;;;;;;;4.00;2.80;;;;;;;23.88;53.62;100168.13;5095322;28;20440;-72
2021/08/16 10:19:56;;;;;;;4.20;2.60;;;;;;;24.00;54.28;100175.22;5095411;28;20425;-72
2021/08/16 10:22:23;;;;;;;2.57;2.37;;;;;;;24.05;52.50;100180.31;5095164;28;20816;-74
2021/08/16 10:24:49;;;;;;;4.93;2.30;;;;;;;24.13;53.68;100170.81;5096040;28;20460;-76
2021/08/16 10:27:16;;;;;;;2.80;2.17;;;;;;;24.09;53.23;100172.78;5095193;28;20968;-76
2021/08/16 10:29:42;;;;;;;4.10;2.80;;;;;;;24.10;52.68;100174.38;5094801;28;20969;-74
2021/08/16 10:32:17;;;;;;;4.10;2.13;;;;;;;24.08;53.66;100171.19;5095408;28;20516;-70
2021/08/16 10:34:45;;;;;;;2.63;1.90;;;;;;;24.20;51.16;100164.41;5094943;28;20491;-72
2021/08/16 10:37:15;;;;;;;2.07;1.40;;;;;;;24.40;52.01;100168.28;5094629;28;20963;-72
2021/08/16 10:39:44;;;;;;;2.93;1.87;;;;;;;24.47;50.46;100159.91;5094875;28;20440;-72
2021/08/16 10:42:12;;;;;;;3.60;2.83;;;;;;;24.66;50.17;100164.94;5096149;28;20824;-72
2021/08/16 10:44:44;;;;;;;2.57;1.80;;;;;;;24.71;51.27;100160.16;5094368;28;20479;-72
2021/08/16 10:47:11;;;;;;;1.97;1.60;;;;;;;24.84;49.27;100159.25;5094741;28;20447;-72
2021/08/16 10:49:40;;;;;;;2.30;1.27;;;;;;;25.03;50.22;100148.81;5094695;28;20440;-72
2021/08/16 10:52:20;;;;;;;4.20;2.20;;;;;;;25.06;49.99;100150.75;5094622;28;20480;-72
2021/08/16 10:54:46;;;;;;;2.10;1.80;;;;;;;25.08;50.11;100156.69;5094592;28;20533;-72
2021/08/16 10:57:13;;;;;;;2.87;1.80;;;;;;;25.29;48.80;100145.41;5094248;28;20467;-72
2021/08/16 10:59:40;;;;;;;2.33;2.00;;;;;;;25.38;48.89;100142.13;5093764;28;20938;-73
2021/08/16 11:02:06;;;;;;;2.10;1.80;;;;;;;25.57;48.39;100137.97;5094218;28;20929;-72
2021/08/16 11:04:34;;;;;;;2.53;1.43;;;;;;;25.91;48.76;100135.97;5094356;28;20464;-72
2021/08/16 11:07:02;;;;;;;4.93;2.20;;;;;;;26.10;46.58;100125.41;5094370;28;20471;-72
2021/08/16 11:09:33;;;;;;;2.67;1.70;;;;;;;26.27;45.26;100132.69;5094341;28;20531;-72
2021/08/16 11:12:04;;;;;;;2.40;1.70;;;;;;;26.32;45.10;100137.78;5094249;28;20468;-71
2021/08/16 11:14:33;;;;;;;2.37;1.53;;;;;;;26.36;46.81;100123.84;5093984;28;20563;-73
2021/08/16 11:16:59;;;;;;;1.63;1.50;;;;;;;26.49;44.66;100124.06;5094247;28;20439;-72
2021/08/16 11:19:28;;;;;;;2.30;1.40;;;;;;;26.40;44.20;100124.56;5094169;28;20447;-72
2021/08/16 11:22:00;;;;;;;3.77;2.47;;;;;;;26.33;44.34;100122.66;5094073;28;20523;-73
2021/08/16 11:24:34;;;;;;;2.60;1.73;;;;;;;26.73;43.99;100117.31;5093873;28;20479;-72
2021/08/16 11:27:01;;;;;;;1.60;1.40;;;;;;;26.76;44.56;100110.91;5094031;28;20428;-72